Time;durP1;ratioP1;P1;durP2;ratioP2;P2;SDS_P1;SDS_P2;PMS_P1;PMS_P2;Temp;Humidity;BMP_temperature;BMP_pressure;BME280_temperature;BME280_humidity;BME280_pressure;Samples;Min_cycle;Max_cycle;Signal;HPM_P1;HPM_P2
2022/07/22 00:02:07;;;;;;;7.93;2.72;;;;;;;23.24;63.82;100999.84;6184759;23;20016;-86
2022/07/22 00:04:33;;;;;;;5.97;2.80;;;;;;;23.20;63.56;100987.81;6184621;23;20080;-86
2022/07/22 00:06:58;;;;;;;4.80;2.17;;;;;;;23.34;62.89;100987.94;6184444;23;20012;-87
2022/07/22 00:09:24;;;;;;;8.60;2.38;;;;;;;23.40;63.19;100996.28;6184293;23;20176;-86
2022/07/22 00:11:49;;;;;;;5.47;2.38;;;;;;;23.44;63.82;100992.22;6184536;23;20008;-87
2022/07/22 00:14:15;;;;;;;9.07;2.97;;;;;;;23.49;64.03;100992.56;6184097;23;20005;-87
2022/07/22 00:16:40;;;;;;;6.20;2.95;;;;;;;23.55;64.12;100997.22;6184603;23;20016;-86
2022/07/22 00:19:06;;;;;;;10.82;2.70;;;;;;;23.56;62.85;101007.78;6184121;23;20031;-86
2022/07/22 00:21:31;;;;;;;7.68;2.42;;;;;;;23.64;62.21;100998.03;6184800;23;20001;-87
2022/07/22 00:23:56;;;;;;;7.38;3.15;;;;;;;23.63;61.69;101002.53;6184566;23;20005;-88
2022/07/22 00:26:22;;;;;;;6.90;2.80;;;;;;;23.68;61.55;101002.03;6157931;23;20042;-86
2022/07/22 00:28:47;;;;;;;6.72;3.15;;;;;;;23.58;61.92;101002.25;6183682;23;20055;-86
2022/07/22 00:31:12;;;;;;;7.80;2.97;;;;;;;23.16;63.27;101000.72;6184384;23;20000;-86
2022/07/22 00:33:38;;;;;;;8.43;3.30;;;;;;;23.16;63.22;100990.00;6184382;23;20025;-87
2022/07/22 00:36:03;;;;;;;6.82;3.67;;;;;;;23.12;63.94;101000.25;6158221;23;20009;-86
2022/07/22 00:38:29;;;;;;;9.65;3.67;;;;;;;23.12;63.72;101000.25;6184139;23;20005;-86
2022/07/22 00:40:54;;;;;;;10.15;5.00;;;;;;;22.82;65.10;100995.59;6183984;23;20005;-87
2022/07/22 00:43:20;;;;;;;13.30;4.85;;;;;;;22.94;64.58;101007.59;6183907;23;20420;-87
2022/07/22 00:45:45;;;;;;;5.93;4.15;;;;;;;22.90;64.82;101007.09;6184488;23;20009;-87
2022/07/22 00:48:10;;;;;;;8.43;4.65;;;;;;;23.07;63.70;101013.31;6184200;23;20008;-86
2022/07/22 00:50:36;;;;;;;9.45;4.25;;;;;;;23.30;62.97;101016.09;6183885;23;20440;-86
2022/07/22 00:53:02;;;;;;;5.72;4.00;;;;;;;23.27;63.02;101021.78;6184247;23;20012;-86
2022/07/22 00:55:28;;;;;;;13.40;4.50;;;;;;;23.30;63.13;101017.91;6184145;23;20000;-86
2022/07/22 00:57:53;;;;;;;8.27;4.55;;;;;;;23.20;63.67;101017.28;6183460;23;20001;-86
2022/07/22 01:00:20;;;;;;;12.20;5.40;;;;;;;23.32;63.14;101016.75;6183921;23;20443;-86
2022/07/22 01:02:47;;;;;;;7.45;4.03;;;;;;;23.10;63.39;101014.78;6183709;23;20005;-86
2022/07/22 01:05:12;;;;;;;5.65;4.43;;;;;;;23.28;63.11;101012.75;6184162;23;20016;-86
2022/07/22 01:07:38;;;;;;;6.63;4.38;;;;;;;23.17;63.17;101016.63;6183822;23;20005;-86
2022/07/22 01:10:05;;;;;;;6.88;3.92;;;;;;;23.02;63.68;101014.78;6184081;23;20001;-85
2022/07/22 01:12:31;;;;;;;9.18;4.20;;;;;;;22.84;64.14;101015.81;6183483;23;20011;-86
2022/07/22 01:14:57;;;;;;;9.25;4.50;;;;;;;22.86;64.71;101004.94;6157780;23;20005;-85
2022/07/22 01:17:23;;;;;;;12.23;4.53;;;;;;;22.95;63.94;101010.13;6184431;23;20063;-86
2022/07/22 01:19:48;;;;;;;8.45;4.40;;;;;;;22.82;64.33;100992.91;6184072;23;20335;-86
2022/07/22 01:22:14;;;;;;;9.32;5.03;;;;;;;22.77;64.48;101006.81;6183928;23;20036;-86
2022/07/22 01:24:39;;;;;;;10.20;4.00;;;;;;;22.85;64.21;100992.56;6183996;23;20005;-86
2022/07/22 01:27:05;;;;;;;6.65;4.30;;;;;;;22.86;64.41;100995.06;6157072;23;20012;-86
2022/07/22 01:29:30;;;;;;;5.95;3.83;;;;;;;22.73;64.93;101000.13;6183707;23;20055;-86
2022/07/22 01:31:56;;;;;;;12.50;5.18;;;;;;;22.53;66.07;100989.78;6183980;23;20005;-87
2022/07/22 01:34:22;;;;;;;12.07;5.00;;;;;;;22.29;66.80;100989.75;6184119;23;20001;-86
2022/07/22 01:36:47;;;;;;;8.32;4.60;;;;;;;22.58;66.06;100987.41;6184000;23;20079;-87
2022/07/22 01:39:13;;;;;;;8.63;4.65;;;;;;;22.70;65.76;100984.41;6183699;23;20043;-86
2022/07/22 01:41:39;;;;;;;8.43;4.35;;;;;;;22.57;66.37;100985.75;6157245;23;20076;-87
2022/07/22 01:44:05;;;;;;;7.65;4.03;;;;;;;22.60;66.54;100989.94;6183627;23;20502;-87
2022/07/22 01:46:30;;;;;;;8.68;4.80;;;;;;;22.59;66.86;100996.31;6183744;23;20015;-86
2022/07/22 01:48:56;;;;;;;11.43;4.95;;;;;;;22.72;66.25;100983.22;6157605;23;20268;-86
2022/07/22 01:51:21;;;;;;;9.32;5.25;;;;;;;22.63;66.83;100991.41;6183780;23;20109;-86
2022/07/22 01:53:47;;;;;;;13.65;4.47;;;;;;;22.57;66.94;100991.09;6183982;23;20324;-85
2022/07/22 01:56:13;;;;;;;9.70;4.00;;;;;;;22.50;67.38;100995.44;6183190;23;20005;-85
2022/07/22 01:58:38;;;;;;;10.13;5.45;;;;;;;22.30;68.55;100997.63;6183631;23;20005;-86
2022/07/22 02:01:04;;;;;;;10.82;4.22;;;;;;;22.42;68.58;100999.97;6183839;23;20012;-86
2022/07/22 02:03:29;;;;;;;9.50;4.05;;;;;;;22.39;68.99;101006.47;6183991;23;20010;-85
2022/07/22 02:05:55;;;;;;;9.73;4.45;;;;;;;22.67;67.53;101007.00;6183465;23;20008;-87
2022/07/22 02:08:21;;;;;;;10.23;4.68;;;;;;;22.52;68.10;101008.66;6157510;23;20002;-85
2022/07/22 02:10:46;;;;;;;14.07;4.53;;;;;;;22.54;67.92;101009.34;6185171;23;20087;-85
2022/07/22 02:13:12;;;;;;;9.35;3.88;;;;;;;22.48;68.50;101007.34;6159117;23;20125;-85
2022/07/22 02:15:38;;;;;;;12.30;4.35;;;;;;;22.46;68.57;101004.81;6185350;23;20005;-85
2022/07/22 02:18:14;;;;;;;7.20;4.10;;;;;;;22.62;68.16;101009.31;6185474;23;20005;-85
2022/07/22 02:20:40;;;;;;;11.10;4.57;;;;;;;22.67;67.93;101003.47;6185292;23;20001;-85
2022/07/22 02:23:06;;;;;;;10.00;4.18;;;;;;;22.60;67.84;101003.31;6185712;23;20059;-86
2022/07/22 02:25:31;;;;;;;15.15;5.20;;;;;;;22.38;69.03;101010.19;6185762;23;20324;-85
2022/07/22 02:27:56;;;;;;;10.98;3.70;;;;;;;22.55;68.26;101017.19;6183455;23;20011;-85
2022/07/22 02:30:22;;;;;;;14.98;5.22;;;;;;;22.43;68.70;101002.47;6185453;23;20028;-86
2022/07/22 02:32:47;;;;;;;8.23;3.40;;;;;;;22.52;67.97;101009.50;6159569;23;20543;-85
2022/07/22 02:35:12;;;;;;;10.38;4.43;;;;;;;22.48;68.39;101016.19;6185381;23;20067;-86
2022/07/22 02:37:38;;;;;;;11.60;3.85;;;;;;;22.38;68.60;101013.69;6184729;23;20375;-85
2022/07/22 02:40:05;;;;;;;7.55;3.00;;;;;;;22.56;68.07;101000.13;6185474;23;20328;-86
2022/07/22 02:42:30;;;;;;;7.07;3.20;;;;;;;22.55;67.89;100997.63;6185176;23;20001;-86
2022/07/22 02:44:56;;;;;;;11.52;4.22;;;;;;;22.56;68.09;100992.09;6185049;23;20063;-86
2022/07/22 02:47:21;;;;;;;12.15;3.13;;;;;;;22.63;67.73;100999.44;6184576;23;20332;-85
2022/07/22 02:49:46;;;;;;;10.35;3.40;;;;;;;22.47;68.82;100994.94;6183199;23;20336;-85
2022/07/22 02:52:12;;;;;;;14.25;3.72;;;;;;;22.41;69.00;100996.44;6185041;23;20005;-86
2022/07/22 02:54:37;;;;;;;10.63;3.53;;;;;;;22.53;68.48;100997.81;6185530;23;20007;-85
2022/07/22 02:57:02;;;;;;;8.32;2.75;;;;;;;22.57;68.29;100991.09;6185316;23;20436;-85
2022/07/22 02:59:28;;;;;;;10.15;3.47;;;;;;;22.54;68.80;100998.63;6185100;23;20356;-85
2022/07/22 03:01:53;;;;;;;9.65;3.72;;;;;;;22.49;69.07;100992.94;6185764;23;20026;-86
2022/07/22 03:04:18;;;;;;;7.55;2.97;;;;;;;22.55;69.26;100993.13;6185064;23;20416;-86
2022/07/22 03:06:44;;;;;;;7.97;2.92;;;;;;;22.68;68.42;100991.75;6184938;23;20465;-86
2022/07/22 03:09:09;;;;;;;8.13;2.65;;;;;;;22.71;68.14;100975.34;6185139;23;20332;-86
2022/07/22 03:11:34;;;;;;;10.63;3.10;;;;;;;22.56;69.15;100969.88;6158482;23;20005;-86
2022/07/22 03:14:00;;;;;;;14.07;3.00;;;;;;;22.58;69.11;100971.34;6185024;23;20001;-86
2022/07/22 03:16:25;;;;;;;8.93;3.30;;;;;;;22.46;69.63;100956.66;6185073;23;20010;-85
2022/07/22 03:18:50;;;;;;;15.77;3.67;;;;;;;22.37;69.90;100958.53;6184431;23;20051;-86
2022/07/22 03:21:16;;;;;;;12.77;3.72;;;;;;;22.38;69.94;100964.69;6184739;23;20033;-85
2022/07/22 03:23:41;;;;;;;10.25;3.15;;;;;;;22.32;71.23;100965.38;6184889;23;20439;-86
2022/07/22 03:26:06;;;;;;;12.90;3.38;;;;;;;22.42;70.23;100949.16;6184911;23;20420;-86
2022/07/22 03:28:32;;;;;;;10.88;3.55;;;;;;;22.44;70.20;100947.97;6184921;23;20128;-86
2022/07/22 03:30:57;;;;;;;8.52;3.20;;;;;;;22.38;70.90;100954.00;6184768;23;20001;-86
2022/07/22 03:33:23;;;;;;;14.00;3.38;;;;;;;22.27;71.54;100947.13;6184606;23;20005;-86
2022/07/22 03:35:48;;;;;;;8.65;3.30;;;;;;;22.06;72.91;100946.75;6184725;23;20431;-85
2022/07/22 03:38:13;;;;;;;10.80;3.65;;;;;;;22.29;72.11;100952.31;6184854;23;20371;-86
2022/07/22 03:40:39;;;;;;;15.77;2.72;;;;;;;22.23;72.25;100947.59;6158336;23;20001;-86
2022/07/22 03:43:04;;;;;;;12.60;2.97;;;;;;;21.96;73.77;100952.28;6184636;23;20005;-85
2022/07/22 03:45:30;;;;;;;11.02;3.70;;;;;;;21.90;74.44;100943.09;6184683;23;20037;-86
2022/07/22 03:47:57;;;;;;;15.48;3.88;;;;;;;21.82;75.40;100945.75;6184622;23;20005;-86
2022/07/22 03:50:23;;;;;;;15.60;3.78;;;;;;;21.84;75.53;100940.22;6184687;23;20439;-86
2022/07/22 03:52:48;;;;;;;8.18;3.40;;;;;;;21.76;76.19;100939.22;6184674;23;20008;-85
2022/07/22 03:55:14;;;;;;;12.73;3.45;;;;;;;21.67;77.04;100940.19;6184657;23;20005;-85
2022/07/22 03:57:39;;;;;;;13.90;3.35;;;;;;;21.62;77.43;100945.19;6185053;23;20324;-85
2022/07/22 04:00:06;;;;;;;11.90;3.40;;;;;;;21.70;77.32;100939.88;6184523;23;20005;-85
2022/07/22 04:02:31;;;;;;;11.38;3.45;;;;;;;21.64;77.82;100939.69;6182047;23;20047;-85
2022/07/22 04:04:57;;;;;;;7.80;2.70;;;;;;;21.69;77.53;100940.88;6183229;23;20009;-85
2022/07/22 04:07:22;;;;;;;13.20;4.30;;;;;;;21.54;78.22;100934.47;6184199;23;20001;-86
2022/07/22 04:09:47;;;;;;;11.20;2.95;;;;;;;21.50;79.04;100938.47;6183591;23;20012;-85
2022/07/22 04:12:13;;;;;;;17.95;3.17;;;;;;;21.50;79.47;100935.81;6184031;23;20016;-86
2022/07/22 04:14:38;;;;;;;15.85;3.50;;;;;;;21.52;79.42;100931.13;6184263;23;20008;-85
2022/07/22 04:17:04;;;;;;;16.95;3.88;;;;;;;21.43;80.02;100932.97;6184039;23;20016;-86
2022/07/22 04:19:29;;;;;;;15.73;3.13;;;;;;;21.39;80.50;100927.06;6182340;23;20028;-86
2022/07/22 04:21:54;;;;;;;7.50;2.83;;;;;;;21.22;81.41;100922.66;6157268;23;20420;-86
2022/07/22 04:24:20;;;;;;;10.23;3.67;;;;;;;21.31;81.83;100934.22;6184119;23;20073;-86
2022/07/22 04:26:45;;;;;;;10.15;2.95;;;;;;;21.48;80.91;100930.63;6183942;23;20066;-85
2022/07/22 04:29:10;;;;;;;11.43;3.08;;;;;;;21.45;80.76;100924.78;6184214;23;20332;-85
2022/07/22 04:31:36;;;;;;;9.82;3.22;;;;;;;21.50;80.40;100928.63;6184008;23;20335;-86
2022/07/22 04:34:01;;;;;;;15.02;3.38;;;;;;;21.50;80.44;100925.94;6183772;23;20072;-86
2022/07/22 04:36:27;;;;;;;11.10;3.00;;;;;;;21.28;81.91;100927.34;6184076;23;20478;-85
2022/07/22 04:38:52;;;;;;;13.02;2.83;;;;;;;21.37;82.03;100923.72;6183999;23;20059;-85
2022/07/22 04:41:18;;;;;;;12.98;3.60;;;;;;;21.44;81.16;100926.59;6184286;23;20001;-86
2022/07/22 04:43:43;;;;;;;14.00;3.20;;;;;;;21.39;81.82;100929.75;6184232;23;20036;-86
2022/07/22 04:46:08;;;;;;;9.98;2.38;;;;;;;21.51;80.83;100924.97;6183779;23;20059;-86
2022/07/22 04:48:34;;;;;;;16.92;3.00;;;;;;;21.39;81.52;100921.72;6183684;23;20004;-85
2022/07/22 04:51:01;;;;;;;10.52;2.70;;;;;;;21.46;80.87;100926.44;6157707;23;20386;-86
2022/07/22 04:53:27;;;;;;;17.98;3.63;;;;;;;21.38;81.10;100930.72;6184097;23;20072;-86
2022/07/22 04:55:52;;;;;;;12.20;2.85;;;;;;;21.49;80.13;100931.47;6184140;23;20009;-86
2022/07/22 04:58:18;;;;;;;8.38;2.88;;;;;;;21.55;79.95;100936.16;6183899;23;20351;-86
2022/07/22 05:00:43;;;;;;;11.88;2.30;;;;;;;21.68;79.39;100936.53;6184027;23;20001;-86
2022/07/22 05:03:09;;;;;;;16.88;3.08;;;;;;;21.77;78.75;100932.03;6183810;23;20395;-86
2022/07/22 05:05:34;;;;;;;9.00;3.53;;;;;;;21.82;78.61;100939.56;6182986;23;20005;-86
2022/07/22 05:07:59;;;;;;;9.13;2.83;;;;;;;21.80;78.44;100934.38;6184148;23;20005;-86
2022/07/22 05:10:25;;;;;;;18.65;3.70;;;;;;;21.69;78.64;100938.19;6183973;23;20416;-85
2022/07/22 05:12:50;;;;;;;11.88;3.22;;;;;;;21.82;77.74;100931.53;6183947;23;20460;-86
2022/07/22 05:15:16;;;;;;;12.60;3.15;;;;;;;21.81;77.51;100932.53;6155681;23;20008;-85
2022/07/22 05:17:41;;;;;;;7.95;2.33;;;;;;;21.75;77.62;100937.53;6183953;23;20005;-86
2022/07/22 05:20:07;;;;;;;10.50;3.28;;;;;;;21.81;76.95;100938.72;6182695;23;20305;-86
2022/07/22 05:22:32;;;;;;;13.32;3.35;;;;;;;21.83;77.48;100952.75;6182915;23;20004;-85
2022/07/22 05:24:58;;;;;;;9.35;2.17;;;;;;;21.87;76.95;100946.06;6183356;23;20392;-86
2022/07/22 05:27:23;;;;;;;12.23;3.67;;;;;;;21.83;77.06;100943.91;6182742;23;20344;-86
2022/07/22 05:29:48;;;;;;;14.98;2.83;;;;;;;21.67;77.37;100950.88;6181759;23;20055;-86
2022/07/22 05:32:15;;;;;;;9.90;2.60;;;;;;;21.60;76.98;100949.84;6183554;23;20067;-85
2022/07/22 05:34:40;;;;;;;6.55;1.95;;;;;;;21.71;75.93;100962.91;6183327;23;20313;-85
2022/07/22 05:37:05;;;;;;;10.45;2.30;;;;;;;21.82;75.61;100958.25;6157069;23;20063;-86
2022/07/22 05:39:31;;;;;;;11.13;2.45;;;;;;;21.75;75.32;100958.91;6183686;23;20012;-85
2022/07/22 05:41:56;;;;;;;10.60;2.90;;;;;;;21.41;74.38;100961.63;6183688;23;20443;-85
2022/07/22 05:44:21;;;;;;;7.20;1.80;;;;;;;21.66;72.81;100959.88;6184434;23;20001;-86
2022/07/22 05:46:47;;;;;;;6.43;2.15;;;;;;;21.69;72.06;100948.88;6185510;23;20005;-86
2022/07/22 05:49:12;;;;;;;7.10;1.95;;;;;;;21.78;70.93;100953.25;6185621;23;20507;-85
2022/07/22 05:51:37;;;;;;;10.52;2.22;;;;;;;21.56;71.52;100943.16;6185620;23;20443;-85
2022/07/22 05:54:03;;;;;;;8.82;2.17;;;;;;;21.64;70.46;100953.88;6159073;23;20012;-86
2022/07/22 05:56:29;;;;;;;10.05;2.55;;;;;;;21.58;70.43;100954.53;6185810;23;20055;-86
2022/07/22 05:58:55;;;;;;;8.55;1.77;;;;;;;21.52;70.15;100952.50;6185518;23;20335;-86
2022/07/22 06:01:21;;;;;;;11.27;2.35;;;;;;;21.39;70.46;100953.78;6185828;23;20005;-85
2022/07/22 06:03:46;;;;;;;8.95;2.90;;;;;;;21.59;69.36;100953.53;6185081;23;20024;-86
2022/07/22 06:06:12;;;;;;;9.05;1.60;;;;;;;21.56;69.11;100943.16;6185461;23;20008;-85
2022/07/22 06:08:37;;;;;;;4.93;1.38;;;;;;;21.71;68.88;100949.56;6185276;23;20008;-86
2022/07/22 06:11:03;;;;;;;15.93;2.72;;;;;;;21.67;69.50;100942.88;6185016;23;19997;-88
2022/07/22 06:13:28;;;;;;;8.18;1.70;;;;;;;21.75;68.26;100947.41;6183025;23;20001;-87
2022/07/22 06:15:53;;;;;;;8.55;1.58;;;;;;;21.90;68.34;100950.25;6183211;23;20457;-84
2022/07/22 06:18:19;;;;;;;12.70;2.50;;;;;;;21.93;68.05;100949.94;6179089;23;20005;-86
2022/07/22 06:20:45;;;;;;;8.95;2.30;;;;;;;22.11;67.36;100947.09;6179132;23;20032;-85
2022/07/22 06:23:10;;;;;;;5.72;1.90;;;;;;;22.10;67.14;100940.94;6178932;23;20055;-85
2022/07/22 06:25:36;;;;;;;8.32;2.08;;;;;;;22.01;66.69;100949.94;6178683;23;20013;-86
2022/07/22 06:28:01;;;;;;;8.55;2.13;;;;;;;22.02;66.27;100948.09;6178525;23;20009;-87
2022/07/22 06:30:27;;;;;;;9.48;2.28;;;;;;;22.18;66.30;100943.59;6152182;23;20007;-85
2022/07/22 06:32:53;;;;;;;5.82;1.50;;;;;;;22.26;66.00;100944.63;6177928;23;20032;-86
2022/07/22 06:35:18;;;;;;;8.77;1.85;;;;;;;21.98;66.65;100942.25;6179037;23;20004;-85
2022/07/22 06:37:44;;;;;;;11.00;2.05;;;;;;;21.99;66.38;100946.59;6178806;23;20009;-86
2022/07/22 06:40:09;;;;;;;5.50;1.58;;;;;;;22.14;65.99;100941.44;6152772;23;20044;-87
2022/07/22 06:42:35;;;;;;;9.23;1.63;;;;;;;22.18;65.73;100943.59;6151360;23;20008;-87
2022/07/22 06:45:00;;;;;;;7.95;1.60;;;;;;;22.23;65.55;100947.59;6178827;23;20012;-86
2022/07/22 06:47:25;;;;;;;8.70;1.63;;;;;;;22.06;65.92;100946.75;6178396;23;20429;-86
2022/07/22 06:49:51;;;;;;;4.90;1.50;;;;;;;21.96;66.33;100953.13;6178846;23;20317;-87
2022/07/22 06:52:16;;;;;;;10.07;2.80;;;;;;;21.92;66.46;100942.91;6178852;23;20005;-85
2022/07/22 06:54:41;;;;;;;7.68;1.80;;;;;;;22.03;66.50;100944.44;6178440;23;20005;-85
2022/07/22 06:57:07;;;;;;;7.88;1.67;;;;;;;22.01;66.92;100949.94;6178496;23;20005;-85
2022/07/22 06:59:32;;;;;;;13.50;2.40;;;;;;;22.00;66.57;100950.94;6178490;23;20009;-85
2022/07/22 07:01:58;;;;;;;9.70;2.47;;;;;;;21.94;66.89;100947.09;6178151;23;20012;-88
2022/07/22 07:04:23;;;;;;;6.90;1.73;;;;;;;21.87;67.60;100943.41;6179221;23;20005;-87
2022/07/22 07:06:48;;;;;;;6.88;1.67;;;;;;;21.69;67.98;100948.06;6151920;23;20009;-85
2022/07/22 07:09:14;;;;;;;15.60;2.15;;;;;;;21.69;68.33;100938.19;6178441;23;20008;-83
2022/07/22 07:11:39;;;;;;;11.32;2.05;;;;;;;21.94;67.35;100938.25;6177892;23;20012;-85
2022/07/22 07:14:04;;;;;;;12.30;2.70;;;;;;;21.84;67.75;100934.88;6178244;23;20020;-84
2022/07/22 07:16:30;;;;;;;9.73;1.90;;;;;;;21.88;67.67;100936.22;6178015;23;20009;-86
2022/07/22 07:18:55;;;;;;;8.63;2.05;;;;;;;21.92;67.37;100942.91;6176806;23;20044;-87
2022/07/22 07:21:21;;;;;;;8.73;2.55;;;;;;;21.94;67.07;100946.28;6178323;23;20009;-84
2022/07/22 07:23:47;;;;;;;7.53;2.30;;;;;;;21.99;66.65;100944.75;6178526;23;20057;-85
2022/07/22 07:26:13;;;;;;;9.73;2.38;;;;;;;22.09;66.42;100949.09;6179831;23;20096;-86
2022/07/22 07:28:38;;;;;;;7.22;1.83;;;;;;;21.85;66.76;100941.91;6176950;23;20371;-85
2022/07/22 07:31:04;;;;;;;5.93;1.40;;;;;;;21.89;66.72;100941.41;6179177;23;20012;-86
2022/07/22 07:33:29;;;;;;;6.00;1.92;;;;;;;22.04;66.20;100946.94;6178085;23;20465;-85
2022/07/22 07:35:55;;;;;;;8.98;1.70;;;;;;;22.14;66.06;100944.09;6178138;23;20024;-86
2022/07/22 07:38:20;;;;;;;9.60;2.25;;;;;;;22.09;66.09;100946.44;6178559;23;20005;-86
2022/07/22 07:40:45;;;;;;;11.57;2.00;;;;;;;22.06;66.11;100947.63;6178321;23;20412;-85
2022/07/22 07:43:11;;;;;;;12.23;2.15;;;;;;;22.20;66.08;100945.28;6176842;23;20008;-86
2022/07/22 07:45:36;;;;;;;7.22;1.92;;;;;;;22.20;65.49;100948.78;6177698;23;20020;-85
2022/07/22 07:48:03;;;;;;;5.82;1.83;;;;;;;22.28;64.88;100945.31;6178374;23;20005;-86
2022/07/22 07:50:28;;;;;;;9.15;3.05;;;;;;;22.30;65.13;100940.63;6178077;23;20456;-86
2022/07/22 07:52:54;;;;;;;6.95;1.90;;;;;;;22.20;65.58;100945.28;6178050;23;20005;-85
2022/07/22 07:55:20;;;;;;;9.75;2.15;;;;;;;22.39;64.85;100944.94;6178126;23;20036;-87
2022/07/22 07:57:48;;;;;;;5.93;1.52;;;;;;;22.41;65.03;100942.94;6147474;23;20331;-86
2022/07/22 08:00:15;;;;;;;8.10;1.70;;;;;;;22.38;64.83;100937.94;6175224;23;20009;-86
2022/07/22 08:02:40;;;;;;;6.25;1.80;;;;;;;22.51;64.08;100938.25;6176743;23;20285;-86
2022/07/22 08:05:08;;;;;;;15.13;2.25;;;;;;;22.60;64.40;100940.94;6177428;23;20005;-87
2022/07/22 08:07:33;;;;;;;11.80;2.38;;;;;;;22.45;64.59;100938.91;6176237;23;20038;-86
2022/07/22 08:09:59;;;;;;;5.68;1.55;;;;;;;22.67;63.89;100945.44;6176821;23;20008;-86
2022/07/22 08:12:24;;;;;;;9.07;2.15;;;;;;;22.58;64.13;100936.56;6176285;23;20424;-88
2022/07/22 08:14:49;;;;;;;4.85;1.95;;;;;;;22.70;63.81;100938.88;6176636;23;20343;-86
2022/07/22 08:17:15;;;;;;;5.68;1.67;;;;;;;22.69;63.87;100939.88;6177019;23;20386;-86
2022/07/22 08:19:40;;;;;;;7.00;2.03;;;;;;;22.83;63.40;100931.16;6177553;23;20423;-87
2022/07/22 08:22:05;;;;;;;18.48;2.85;;;;;;;22.94;63.79;100933.47;6177295;23;20424;-87
2022/07/22 08:24:31;;;;;;;10.80;2.13;;;;;;;23.07;62.86;100935.63;6178781;23;20432;-87
2022/07/22 08:26:56;;;;;;;9.02;2.78;;;;;;;23.00;63.12;100934.63;6177711;23;20440;-86
2022/07/22 08:29:22;;;;;;;14.15;3.13;;;;;;;22.90;63.44;100939.34;6177956;23;20055;-87
2022/07/22 08:31:47;;;;;;;10.50;2.80;;;;;;;23.01;63.36;100930.94;6178133;23;20009;-87
2022/07/22 08:34:12;;;;;;;7.68;2.55;;;;;;;23.06;63.35;100935.81;6178038;23;20378;-87
2022/07/22 08:36:39;;;;;;;8.23;2.63;;;;;;;23.42;62.21;100938.84;6177366;23;20380;-86
2022/07/22 08:39:04;;;;;;;17.00;2.97;;;;;;;23.31;62.50;100933.84;6177271;23;20041;-87
2022/07/22 08:41:34;;;;;;;8.15;2.85;;;;;;;23.73;60.95;100938.78;6176642;23;20005;-87
2022/07/22 08:44:01;;;;;;;8.93;3.22;;;;;;;23.80;60.06;100932.78;6177608;23;20009;-87
2022/07/22 08:46:27;;;;;;;9.48;2.47;;;;;;;23.70;60.48;100933.81;6177649;23;20510;-87
2022/07/22 08:48:54;;;;;;;10.23;2.53;;;;;;;23.69;61.01;100934.81;6177485;23;20037;-87
2022/07/22 08:51:20;;;;;;;10.70;3.35;;;;;;;23.35;61.14;100932.50;6178442;23;20024;-87
2022/07/22 08:53:45;;;;;;;9.68;2.55;;;;;;;23.53;61.11;100938.41;6177834;23;20005;-87
2022/07/22 08:56:12;;;;;;;9.38;2.45;;;;;;;23.61;61.25;100931.34;6150373;23;20012;-88
2022/07/22 08:58:38;;;;;;;10.70;2.72;;;;;;;23.78;60.05;100924.91;6176427;23;20483;-87
2022/07/22 09:01:13;;;;;;;8.05;2.40;;;;;;;24.51;59.11;100923.47;6177940;23;20005;-87
2022/07/22 09:03:56;;;;;;;12.98;3.45;;;;;;;24.83;58.08;100923.31;6178183;23;20486;-87
2022/07/22 09:06:25;;;;;;;13.90;3.08;;;;;;;24.83;57.62;100913.41;6177556;23;20432;-86
2022/07/22 09:08:53;;;;;;;10.00;3.45;;;;;;;25.11;57.17;100920.78;6150371;23;20443;-87
2022/07/22 09:11:20;;;;;;;11.82;3.50;;;;;;;25.63;55.50;100925.16;6150537;23;20044;-85
2022/07/22 09:13:46;;;;;;;11.68;3.13;;;;;;;25.94;54.25;100917.81;6175795;23;20392;-85
2022/07/22 09:16:11;;;;;;;13.90;3.42;;;;;;;25.73;53.82;100925.69;6178060;23;20005;-87
2022/07/22 09:18:46;;;;;;;10.02;3.20;;;;;;;25.62;54.69;100926.16;6176541;23;20048;-86
2022/07/22 09:21:13;;;;;;;10.80;2.58;;;;;;;25.44;54.71;100920.41;6151078;23;20447;-85
2022/07/22 09:23:41;;;;;;;9.15;2.60;;;;;;;25.71;53.82;100916.13;6177938;23;20005;-86
2022/07/22 09:26:07;;;;;;;13.70;3.25;;;;;;;25.73;54.05;100917.59;6176330;23;20016;-86
2022/07/22 09:28:33;;;;;;;12.15;3.40;;;;;;;26.55;53.17;100910.03;6150741;23;20005;-86
2022/07/22 09:30:58;;;;;;;16.92;2.85;;;;;;;26.42;51.82;100901.84;6177581;23;20005;-86
2022/07/22 09:33:24;;;;;;;6.78;2.85;;;;;;;26.26;52.60;100921.81;6150307;23;20009;-86
2022/07/22 09:35:50;;;;;;;11.43;4.05;;;;;;;26.50;51.84;100910.63;6178078;23;20009;-85
2022/07/22 09:38:17;;;;;;;9.57;2.88;;;;;;;26.47;51.63;100897.53;6177562;23;20354;-86
2022/07/22 09:40:44;;;;;;;10.73;2.72;;;;;;;26.38;51.83;100906.78;6177050;23;20024;-86
2022/07/22 09:43:13;;;;;;;9.68;3.03;;;;;;;26.80;50.62;100898.81;6177929;23;20005;-86
2022/07/22 09:45:57;;;;;;;19.10;3.10;;;;;;;26.48;51.62;100901.91;6178053;23;20009;-86
2022/07/22 09:48:23;;;;;;;9.35;2.70;;;;;;;26.39;51.67;100895.00;6177814;23;20218;-86
2022/07/22 09:50:50;;;;;;;8.35;2.53;;;;;;;26.30;52.56;100906.94;6177199;23;20039;-85
2022/07/22 09:53:17;;;;;;;13.43;2.55;;;;;;;26.03;52.72;100901.34;6151016;23;20098;-85
2022/07/22 09:55:43;;;;;;;9.20;3.00;;;;;;;25.81;53.45;100903.22;6177148;23;20076;-87
2022/07/22 09:58:08;;;;;;;8.65;2.53;;;;;;;26.33;52.48;100903.88;6177556;23;20450;-87
2022/07/22 10:00:35;;;;;;;13.77;3.10;;;;;;;26.14;53.04;100909.94;6176943;23;20016;-86
2022/07/22 10:03:03;;;;;;;9.27;2.55;;;;;;;26.28;52.31;100907.16;6177848;23;20044;-85
2022/07/22 10:05:31;;;;;;;9.85;2.63;;;;;;;26.69;52.26;100902.88;6177079;23;20042;-86
2022/07/22 10:07:57;;;;;;;6.18;2.28;;;;;;;27.18;51.51;100901.06;6177581;23;20008;-86
2022/07/22 10:10:26;;;;;;;6.75;2.78;;;;;;;26.96;50.44;100900.34;6176976;23;20013;-87
2022/07/22 10:12:54;;;;;;;8.60;2.65;;;;;;;26.77;50.24;100900.03;6177551;23;20009;-86
2022/07/22 10:15:21;;;;;;;7.70;2.53;;;;;;;26.79;50.40;100903.34;6177485;23;20075;-86
2022/07/22 10:17:49;;;;;;;16.15;3.20;;;;;;;27.66;49.29;100903.69;6177262;23;20013;-87
2022/07/22 10:20:20;;;;;;;14.98;3.25;;;;;;;28.24;47.87;100903.16;6177132;23;20005;-87
2022/07/22 10:22:49;;;;;;;11.00;3.42;;;;;;;28.84;45.65;100898.47;6151061;23;20012;-86
2022/07/22 10:25:18;;;;;;;9.15;2.35;;;;;;;29.14;45.37;100897.97;6176837;23;20009;-86
2022/07/22 10:27:43;;;;;;;7.90;2.65;;;;;;;29.26;44.45;100887.28;6178062;23;20430;-86
2022/07/22 10:30:10;;;;;;;10.57;3.17;;;;;;;29.22;44.21;100881.50;6178020;23;20043;-86
2022/07/22 10:32:35;;;;;;;11.27;3.08;;;;;;;29.55;44.20;100875.06;6179471;23;20075;-87
2022/07/22 10:35:01;;;;;;;10.25;2.92;;;;;;;29.32;44.65;100885.59;6179663;23;20005;-87
2022/07/22 10:37:38;;;;;;;11.80;3.08;;;;;;;29.61;43.79;100876.88;6179323;23;20009;-87
2022/07/22 10:40:20;;;;;;;6.80;2.55;;;;;;;30.07;43.13;100866.75;6178229;23;20335;-86
2022/07/22 10:43:00;;;;;;;9.60;2.58;;;;;;;29.85;43.02;100866.34;6179374;23;20059;-86
2022/07/22 10:45:29;;;;;;;9.63;3.13;;;;;;;29.16;43.77;100865.31;6179892;23;20154;-86
2022/07/22 10:47:57;;;;;;;8.07;2.80;;;;;;;29.26;43.86;100858.38;6178338;23;20017;-87
2022/07/22 10:50:37;;;;;;;7.90;2.92;;;;;;;29.18;43.95;100866.75;6178764;23;20035;-87
2022/07/22 10:53:10;;;;;;;7.90;2.65;;;;;;;29.09;45.15;100859.91;6179239;23;20025;-87
2022/07/22 10:55:37;;;;;;;8.18;2.58;;;;;;;28.85;45.54;100859.59;6178405;23;20007;-86
2022/07/22 10:58:51;;;;;;;10.60;2.92;;;;;;;28.62;45.52;100856.56;6178766;23;20005;-86
2022/07/22 11:01:19;;;;;;;7.93;3.50;;;;;;;28.26;45.67;100853.28;6165927;23;20021;-87
2022/07/22 11:03:45;;;;;;;7.63;2.47;;;;;;;28.37;46.45;100845.59;6179292;23;20561;-87
2022/07/22 11:06:26;;;;;;;8.98;2.85;;;;;;;30.35;45.05;100838.41;6179425;23;20028;-87
2022/07/22 11:08:57;;;;;;;12.02;3.03;;;;;;;30.61;41.34;100850.84;6179558;23;20009;-86
2022/07/22 11:11:47;;;;;;;8.68;3.10;;;;;;;30.02;42.30;100851.19;6178083;23;20016;-86
2022/07/22 11:14:14;;;;;;;11.05;3.05;;;;;;;29.31;43.12;100846.09;6145283;23;20063;-87
2022/07/22 11:16:39;;;;;;;8.27;3.03;;;;;;;29.30;42.98;100849.84;6179486;23;20398;-87
2022/07/22 11:19:06;;;;;;;9.05;3.03;;;;;;;29.50;42.52;100850.53;6179513;23;20025;-86